sensor_id;sensor_type;location;lat;lon;timestamp;pressure;altitude;pressure_sealevel;temperature;humidity
56582;BME280;42463;52.214;21.238;2024-03-29T00:01:56;98564.09;;;10.16;72.13
56582;BME280;42463;52.214;21.238;2024-03-29T00:04:28;98570.85;;;10.14;72.01
56582;BME280;42463;52.214;21.238;2024-03-29T00:07:01;98576.20;;;10.12;72.13
56582;BME280;42463;52.214;21.238;2024-03-29T00:09:34;98581.98;;;10.10;71.93
56582;BME280;42463;52.214;21.238;2024-03-29T00:12:09;98591.04;;;10.09;71.79
56582;BME280;42463;52.214;21.238;2024-03-29T00:14:43;98599.50;;;10.09;71.95
56582;BME280;42463;52.214;21.238;2024-03-29T00:17:18;98605.27;;;10.10;71.97
56582;BME280;42463;52.214;21.238;2024-03-29T00:19:51;98617.04;;;10.10;71.89
56582;BME280;42463;52.214;21.238;2024-03-29T00:22:24;98621.36;;;10.11;71.96
56582;BME280;42463;52.214;21.238;2024-03-29T00:24:57;98627.77;;;10.09;72.09
56582;BME280;42463;52.214;21.238;2024-03-29T00:27:31;98633.23;;;10.10;72.12
56582;BME280;42463;52.214;21.238;2024-03-29T00:30:03;98639.84;;;10.11;72.61
56582;BME280;42463;52.214;21.238;2024-03-29T00:32:36;98645.42;;;10.10;72.78
56582;BME280;42463;52.214;21.238;2024-03-29T00:35:08;98650.87;;;10.08;73.17
56582;BME280;42463;52.214;21.238;2024-03-29T00:37:48;98659.94;;;10.07;73.30
56582;BME280;42463;52.214;21.238;2024-03-29T00:40:20;98667.49;;;10.06;73.13
56582;BME280;42463;52.214;21.238;2024-03-29T00:42:53;98671.94;;;10.05;73.38
56582;BME280;42463;52.214;21.238;2024-03-29T00:45:28;98674.39;;;10.05;73.72
56582;BME280;42463;52.214;21.238;2024-03-29T00:48:00;98674.83;;;10.04;74.12
56582;BME280;42463;52.214;21.238;2024-03-29T00:50:33;98682.59;;;10.03;74.21
56582;BME280;42463;52.214;21.238;2024-03-29T00:53:07;98687.23;;;10.04;74.30
56582;BME280;42463;52.214;21.238;2024-03-29T00:55:42;98695.38;;;10.06;74.90
56582;BME280;42463;52.214;21.238;2024-03-29T00:58:14;98701.33;;;10.07;75.12
56582;BME280;42463;52.214;21.238;2024-03-29T01:00:47;98709.07;;;10.08;75.10
56582;BME280;42463;52.214;21.238;2024-03-29T01:03:20;98708.47;;;10.09;75.36
56582;BME280;42463;52.214;21.238;2024-03-29T01:05:53;98713.16;;;10.10;75.51
56582;BME280;42463;52.214;21.238;2024-03-29T01:08:26;98722.75;;;10.10;75.60
56582;BME280;42463;52.214;21.238;2024-03-29T01:11:00;98726.69;;;10.12;75.58
56582;BME280;42463;52.214;21.238;2024-03-29T01:13:33;98729.81;;;10.13;75.60
56582;BME280;42463;52.214;21.238;2024-03-29T01:16:07;98732.61;;;10.14;75.62
56582;BME280;42463;52.214;21.238;2024-03-29T01:18:39;98741.08;;;10.16;75.75
56582;BME280;42463;52.214;21.238;2024-03-29T01:21:14;98742.38;;;10.17;75.66
56582;BME280;42463;52.214;21.238;2024-03-29T01:23:48;98751.63;;;10.18;75.67
56582;BME280;42463;52.214;21.238;2024-03-29T01:26:21;98755.09;;;10.19;75.97
56582;BME280;42463;52.214;21.238;2024-03-29T01:28:53;98762.52;;;10.21;76.12
56582;BME280;42463;52.214;21.238;2024-03-29T01:31:26;98763.16;;;10.21;76.15
56582;BME280;42463;52.214;21.238;2024-03-29T01:33:58;98773.79;;;10.21;75.97
56582;BME280;42463;52.214;21.238;2024-03-29T01:36:34;98779.91;;;10.21;76.07
56582;BME280;42463;52.214;21.238;2024-03-29T01:39:07;98788.27;;;10.20;75.76
56582;BME280;42463;52.214;21.238;2024-03-29T01:41:43;98794.04;;;10.16;75.93
56582;BME280;42463;52.214;21.238;2024-03-29T01:44:18;98797.77;;;10.13;75.64
56582;BME280;42463;52.214;21.238;2024-03-29T01:46:51;98806.33;;;10.09;75.47
56582;BME280;42463;52.214;21.238;2024-03-29T01:49:24;98809.17;;;10.07;75.41
56582;BME280;42463;52.214;21.238;2024-03-29T01:51:57;98816.45;;;10.05;75.52
56582;BME280;42463;52.214;21.238;2024-03-29T01:54:33;98815.98;;;10.05;75.24
56582;BME280;42463;52.214;21.238;2024-03-29T01:57:09;98818.42;;;10.03;74.96
56582;BME280;42463;52.214;21.238;2024-03-29T01:59:44;98828.17;;;10.04;74.96
56582;BME280;42463;52.214;21.238;2024-03-29T02:02:18;98831.39;;;10.06;74.72
56582;BME280;42463;52.214;21.238;2024-03-29T02:04:52;98830.50;;;10.08;74.75
56582;BME280;42463;52.214;21.238;2024-03-29T02:07:29;98840.45;;;10.10;74.56
56582;BME280;42463;52.214;21.238;2024-03-29T02:10:03;98847.48;;;10.12;74.58
56582;BME280;42463;52.214;21.238;2024-03-29T02:12:37;98852.34;;;10.13;74.62
56582;BME280;42463;52.214;21.238;2024-03-29T02:15:15;98859.32;;;10.14;74.59
56582;BME280;42463;52.214;21.238;2024-03-29T02:17:47;98863.04;;;10.15;74.70
56582;BME280;42463;52.214;21.238;2024-03-29T02:20:19;98867.73;;;10.16;74.78
56582;BME280;42463;52.214;21.238;2024-03-29T02:22:57;98865.25;;;10.16;74.99
56582;BME280;42463;52.214;21.238;2024-03-29T02:25:30;98860.87;;;10.16;75.18
56582;BME280;42463;52.214;21.238;2024-03-29T02:28:04;98864.63;;;10.15;75.17
56582;BME280;42463;52.214;21.238;2024-03-29T02:30:37;98867.81;;;10.15;75.25
56582;BME280;42463;52.214;21.238;2024-03-29T02:33:09;98869.48;;;10.16;75.62
56582;BME280;42463;52.214;21.238;2024-03-29T02:35:43;98876.18;;;10.18;75.51
56582;BME280;42463;52.214;21.238;2024-03-29T02:38:16;98881.17;;;10.17;75.45
56582;BME280;42463;52.214;21.238;2024-03-29T02:40:49;98885.02;;;10.18;75.57
56582;BME280;42463;52.214;21.238;2024-03-29T02:43:22;98883.73;;;10.17;75.39
56582;BME280;42463;52.214;21.238;2024-03-29T02:45:54;98891.11;;;10.16;75.14
56582;BME280;42463;52.214;21.238;2024-03-29T02:48:27;98897.45;;;10.15;75.56
56582;BME280;42463;52.214;21.238;2024-03-29T02:50:59;98902.13;;;10.14;75.52
56582;BME280;42463;52.214;21.238;2024-03-29T02:53:33;98911.86;;;10.12;75.68
56582;BME280;42463;52.214;21.238;2024-03-29T02:56:06;98924.43;;;10.12;75.67
56582;BME280;42463;52.214;21.238;2024-03-29T02:58:39;98927.37;;;10.11;75.63
56582;BME280;42463;52.214;21.238;2024-03-29T03:01:12;98937.52;;;10.08;75.49
56582;BME280;42463;52.214;21.238;2024-03-29T03:03:44;98945.02;;;10.06;75.56
56582;BME280;42463;52.214;21.238;2024-03-29T03:06:16;98951.39;;;10.04;75.59
56582;BME280;42463;52.214;21.238;2024-03-29T03:08:49;98949.58;;;10.02;75.63
56582;BME280;42463;52.214;21.238;2024-03-29T03:11:39;98959.52;;;9.99;75.69
56582;BME280;42463;52.214;21.238;2024-03-29T03:14:11;98963.66;;;9.97;75.48
56582;BME280;42463;52.214;21.238;2024-03-29T03:16:43;98965.95;;;9.94;75.56
56582;BME280;42463;52.214;21.238;2024-03-29T03:19:17;98971.77;;;9.91;75.34
56582;BME280;42463;52.214;21.238;2024-03-29T03:21:53;98974.52;;;9.88;75.09
56582;BME280;42463;52.214;21.238;2024-03-29T03:24:27;98974.15;;;9.87;75.11
56582;BME280;42463;52.214;21.238;2024-03-29T03:27:00;98976.98;;;9.85;74.79
56582;BME280;42463;52.214;21.238;2024-03-29T03:29:31;98986.58;;;9.84;75.06
56582;BME280;42463;52.214;21.238;2024-03-29T03:32:05;98991.26;;;9.81;74.53
56582;BME280;42463;52.214;21.238;2024-03-29T03:34:37;98995.25;;;9.77;73.88
56582;BME280;42463;52.214;21.238;2024-03-29T03:37:10;99001.13;;;9.74;73.85
56582;BME280;42463;52.214;21.238;2024-03-29T03:39:42;99008.85;;;9.71;73.47
56582;BME280;42463;52.214;21.238;2024-03-29T03:42:14;99007.34;;;9.68;73.61
56582;BME280;42463;52.214;21.238;2024-03-29T03:44:47;99014.14;;;9.65;73.31
56582;BME280;42463;52.214;21.238;2024-03-29T03:47:20;99021.36;;;9.63;73.00
56582;BME280;42463;52.214;21.238;2024-03-29T03:49:52;99028.79;;;9.62;72.89
56582;BME280;42463;52.214;21.238;2024-03-29T03:52:25;99037.89;;;9.61;72.51
56582;BME280;42463;52.214;21.238;2024-03-29T03:54:58;99042.22;;;9.62;72.22
56582;BME280;42463;52.214;21.238;2024-03-29T03:57:30;99046.12;;;9.61;71.98
56582;BME280;42463;52.214;21.238;2024-03-29T04:00:09;99044.30;;;9.58;71.53
56582;BME280;42463;52.214;21.238;2024-03-29T04:02:42;99050.11;;;9.56;71.25
56582;BME280;42463;52.214;21.238;2024-03-29T04:05:14;99056.18;;;9.55;71.10
56582;BME280;42463;52.214;21.238;2024-03-29T04:07:46;99058.73;;;9.55;70.88
56582;BME280;42463;52.214;21.238;2024-03-29T04:10:20;99059.92;;;9.54;70.95
56582;BME280;42463;52.214;21.238;2024-03-29T04:12:54;99066.57;;;9.54;70.82
56582;BME280;42463;52.214;21.238;2024-03-29T04:15:26;99071.61;;;9.54;70.40
56582;BME280;42463;52.214;21.238;2024-03-29T04:18:00;99071.77;;;9.56;69.99
56582;BME280;42463;52.214;21.238;2024-03-29T04:20:32;99070.40;;;9.57;69.85
56582;BME280;42463;52.214;21.238;2024-03-29T04:23:07;99076.89;;;9.58;69.62
56582;BME280;42463;52.214;21.238;2024-03-29T04:25:40;99082.08;;;9.59;69.18
56582;BME280;42463;52.214;21.238;2024-03-29T04:28:12;99084.19;;;9.61;69.31
56582;BME280;42463;52.214;21.238;2024-03-29T04:30:56;99084.56;;;9.62;69.27
56582;BME280;42463;52.214;21.238;2024-03-29T04:33:30;99093.88;;;9.61;69.26
56582;BME280;42463;52.214;21.238;2024-03-29T04:36:05;99096.25;;;9.62;69.15
56582;BME280;42463;52.214;21.238;2024-03-29T04:38:36;99104.34;;;9.59;68.77
56582;BME280;42463;52.214;21.238;2024-03-29T04:41:09;99105.98;;;9.57;68.30
56582;BME280;42463;52.214;21.238;2024-03-29T04:43:43;99111.39;;;9.56;68.62
56582;BME280;42463;52.214;21.238;2024-03-29T04:46:15;99116.71;;;9.56;68.76
56582;BME280;42463;52.214;21.238;2024-03-29T04:48:47;99125.70;;;9.55;68.69
56582;BME280;42463;52.214;21.238;2024-03-29T04:51:20;99130.41;;;9.54;69.08
56582;BME280;42463;52.214;21.238;2024-03-29T04:53:52;99133.36;;;9.52;69.06
56582;BME280;42463;52.214;21.238;2024-03-29T04:56:25;99135.69;;;9.51;68.90
56582;BME280;42463;52.214;21.238;2024-03-29T04:58:59;99131.69;;;9.49;68.77
56582;BME280;42463;52.214;21.238;2024-03-29T05:01:32;99133.48;;;9.46;68.25
56582;BME280;42463;52.214;21.238;2024-03-29T05:04:06;99141.17;;;9.46;68.21
56582;BME280;42463;52.214;21.238;2024-03-29T05:06:38;99143.89;;;9.45;68.60
56582;BME280;42463;52.214;21.238;2024-03-29T05:09:11;99145.46;;;9.44;68.74
56582;BME280;42463;52.214;21.238;2024-03-29T05:11:43;99152.45;;;9.43;68.66
56582;BME280;42463;52.214;21.238;2024-03-29T05:14:16;99163.13;;;9.41;69.04
56582;BME280;42463;52.214;21.238;2024-03-29T05:16:51;99166.87;;;9.39;69.17
56582;BME280;42463;52.214;21.238;2024-03-29T05:19:25;99164.33;;;9.37;69.16
56582;BME280;42463;52.214;21.238;2024-03-29T05:21:58;99168.50;;;9.37;69.01
56582;BME280;42463;52.214;21.238;2024-03-29T05:24:32;99164.60;;;9.39;68.82
56582;BME280;42463;52.214;21.238;2024-03-29T05:27:06;99174.82;;;9.41;68.64
56582;BME280;42463;52.214;21.238;2024-03-29T05:29:40;99175.67;;;9.44;68.70
56582;BME280;42463;52.214;21.238;2024-03-29T05:32:13;99180.96;;;9.49;68.75
56582;BME280;42463;52.214;21.238;2024-03-29T05:34:46;99171.80;;;9.52;68.87
56582;BME280;42463;52.214;21.238;2024-03-29T05:37:18;99175.61;;;9.56;68.43
56582;BME280;42463;52.214;21.238;2024-03-29T05:39:51;99178.46;;;9.62;68.19
56582;BME280;42463;52.214;21.238;2024-03-29T05:42:34;99177.02;;;9.68;68.16
56582;BME280;42463;52.214;21.238;2024-03-29T05:45:26;99174.45;;;9.73;67.89
56582;BME280;42463;52.214;21.238;2024-03-29T05:48:00;99175.72;;;9.80;67.38
56582;BME280;42463;52.214;21.238;2024-03-29T05:50:33;99177.41;;;9.87;67.22
56582;BME280;42463;52.214;21.238;2024-03-29T05:53:08;99181.16;;;9.93;66.54
56582;BME280;42463;52.214;21.238;2024-03-29T05:55:41;99187.58;;;9.99;66.23
56582;BME280;42463;52.214;21.238;2024-03-29T05:58:13;99192.52;;;10.05;66.26
56582;BME280;42463;52.214;21.238;2024-03-29T06:00:51;99198.29;;;10.11;65.98
56582;BME280;42463;52.214;21.238;2024-03-29T06:03:25;99197.27;;;10.17;65.58
56582;BME280;42463;52.214;21.238;2024-03-29T06:05:58;99190.19;;;10.26;65.40
56582;BME280;42463;52.214;21.238;2024-03-29T06:08:30;99184.87;;;10.34;64.82
56582;BME280;42463;52.214;21.238;2024-03-29T06:11:03;99187.88;;;10.42;64.47
56582;BME280;42463;52.214;21.238;2024-03-29T06:13:37;99194.84;;;10.51;64.32
56582;BME280;42463;52.214;21.238;2024-03-29T06:16:27;99197.93;;;10.59;64.21
56582;BME280;42463;52.214;21.238;2024-03-29T06:19:18;99193.42;;;10.67;63.75
56582;BME280;42463;52.214;21.238;2024-03-29T06:21:51;99192.15;;;10.75;62.77
56582;BME280;42463;52.214;21.238;2024-03-29T06:24:24;99196.63;;;10.83;62.67
56582;BME280;42463;52.214;21.238;2024-03-29T06:26:56;99194.36;;;10.95;63.22
56582;BME280;42463;52.214;21.238;2024-03-29T06:29:29;99196.08;;;11.06;63.01
56582;BME280;42463;52.214;21.238;2024-03-29T06:32:02;99203.55;;;11.18;63.50
56582;BME280;42463;52.214;21.238;2024-03-29T06:34:34;99217.48;;;11.30;62.99
56582;BME280;42463;52.214;21.238;2024-03-29T06:37:06;99228.35;;;11.40;62.45
56582;BME280;42463;52.214;21.238;2024-03-29T06:39:38;99231.16;;;11.48;61.29
56582;BME280;42463;52.214;21.238;2024-03-29T06:42:12;99240.49;;;11.58;60.64
56582;BME280;42463;52.214;21.238;2024-03-29T06:44:44;99237.42;;;11.66;59.34
56582;BME280;42463;52.214;21.238;2024-03-29T06:47:16;99238.30;;;11.73;59.23
56582;BME280;42463;52.214;21.238;2024-03-29T06:49:49;99245.79;;;11.86;59.45
56582;BME280;42463;52.214;21.238;2024-03-29T06:52:20;99248.73;;;11.98;59.34
56582;BME280;42463;52.214;21.238;2024-03-29T06:54:52;99256.03;;;12.09;58.96
56582;BME280;42463;52.214;21.238;2024-03-29T06:57:25;99257.79;;;12.20;58.24
56582;BME280;42463;52.214;21.238;2024-03-29T07:00:02;99257.84;;;12.27;57.32
56582;BME280;42463;52.214;21.238;2024-03-29T07:02:35;99266.48;;;12.32;57.35
56582;BME280;42463;52.214;21.238;2024-03-29T07:05:08;99269.92;;;12.38;57.01
56582;BME280;42463;52.214;21.238;2024-03-29T07:07:42;99270.99;;;12.48;56.58
56582;BME280;42463;52.214;21.238;2024-03-29T07:10:17;99275.89;;;12.60;56.77
56582;BME280;42463;52.214;21.238;2024-03-29T07:12:50;99276.52;;;12.71;55.96
56582;BME280;42463;52.214;21.238;2024-03-29T07:15:22;99274.59;;;12.80;55.26
56582;BME280;42463;52.214;21.238;2024-03-29T07:17:58;99269.80;;;12.87;55.37
56582;BME280;42463;52.214;21.238;2024-03-29T07:20:32;99270.60;;;12.97;54.61
56582;BME280;42463;52.214;21.238;2024-03-29T07:23:05;99270.83;;;13.09;54.71
56582;BME280;42463;52.214;21.238;2024-03-29T07:25:37;99266.73;;;13.21;54.95
56582;BME280;42463;52.214;21.238;2024-03-29T07:28:11;99267.10;;;13.34;54.62
56582;BME280;42463;52.214;21.238;2024-03-29T07:30:46;99272.77;;;13.48;53.66
56582;BME280;42463;52.214;21.238;2024-03-29T07:33:19;99282.27;;;13.63;53.60
56582;BME280;42463;52.214;21.238;2024-03-29T07:35:54;99272.04;;;13.76;52.80
56582;BME280;42463;52.214;21.238;2024-03-29T07:38:29;99269.10;;;13.86;52.37
56582;BME280;42463;52.214;21.238;2024-03-29T07:41:01;99265.92;;;13.95;51.70
56582;BME280;42463;52.214;21.238;2024-03-29T07:43:50;99257.66;;;14.02;51.54
56582;BME280;42463;52.214;21.238;2024-03-29T07:46:23;99258.98;;;14.09;50.46
56582;BME280;42463;52.214;21.238;2024-03-29T07:48:56;99268.55;;;14.15;50.50
56582;BME280;42463;52.214;21.238;2024-03-29T07:51:29;99270.29;;;14.26;50.27
56582;BME280;42463;52.214;21.238;2024-03-29T07:54:01;99273.23;;;14.35;49.76
56582;BME280;42463;52.214;21.238;2024-03-29T07:56:38;99269.10;;;14.44;49.40
56582;BME280;42463;52.214;21.238;2024-03-29T07:59:10;99273.17;;;14.51;49.30
56582;BME280;42463;52.214;21.238;2024-03-29T08:01:43;99268.51;;;14.61;49.08
56582;BME280;42463;52.214;21.238;2024-03-29T08:04:16;99274.60;;;14.69;48.90
56582;BME280;42463;52.214;21.238;2024-03-29T08:06:51;99276.76;;;14.77;48.98
56582;BME280;42463;52.214;21.238;2024-03-29T08:09:24;99281.71;;;14.87;48.61
56582;BME280;42463;52.214;21.238;2024-03-29T08:11:57;99291.16;;;14.97;47.86
56582;BME280;42463;52.214;21.238;2024-03-29T08:14:29;99298.69;;;15.02;48.48
56582;BME280;42463;52.214;21.238;2024-03-29T08:17:01;99309.02;;;15.09;47.70
56582;BME280;42463;52.214;21.238;2024-03-29T08:19:35;99317.55;;;15.17;47.31
56582;BME280;42463;52.214;21.238;2024-03-29T08:22:07;99317.75;;;15.22;47.55
56582;BME280;42463;52.214;21.238;2024-03-29T08:24:40;99314.55;;;15.30;46.98
56582;BME280;42463;52.214;21.238;2024-03-29T08:27:13;99311.83;;;15.38;47.08
56582;BME280;42463;52.214;21.238;2024-03-29T08:29:46;99315.54;;;15.51;47.23
56582;BME280;42463;52.214;21.238;2024-03-29T08:32:20;99313.52;;;15.63;46.52
56582;BME280;42463;52.214;21.238;2024-03-29T08:34:53;99316.66;;;15.72;46.27
56582;BME280;42463;52.214;21.238;2024-03-29T08:37:25;99314.52;;;15.79;45.81
56582;BME280;42463;52.214;21.238;2024-03-29T08:39:56;99314.71;;;15.83;45.17
56582;BME280;42463;52.214;21.238;2024-03-29T08:42:28;99311.15;;;15.85;45.34
56582;BME280;42463;52.214;21.238;2024-03-29T08:45:05;99314.42;;;15.91;45.21
56582;BME280;42463;52.214;21.238;2024-03-29T08:47:38;99318.90;;;15.92;44.27
56582;BME280;42463;52.214;21.238;2024-03-29T08:50:12;99317.56;;;15.87;44.02
56582;BME280;42463;52.214;21.238;2024-03-29T08:52:46;99317.63;;;15.87;44.25
56582;BME280;42463;52.214;21.238;2024-03-29T08:55:19;99323.98;;;15.84;43.63
56582;BME280;42463;52.214;21.238;2024-03-29T08:57:51;99329.77;;;15.83;43.34
56582;BME280;42463;52.214;21.238;2024-03-29T09:00:24;99331.59;;;15.86;44.02
56582;BME280;42463;52.214;21.238;2024-03-29T09:02:57;99335.99;;;15.95;44.45
56582;BME280;42463;52.214;21.238;2024-03-29T09:05:29;99343.26;;;16.02;43.68
56582;BME280;42463;52.214;21.238;2024-03-29T09:08:02;99341.79;;;16.05;43.57
56582;BME280;42463;52.214;21.238;2024-03-29T09:10:34;99341.77;;;16.09;42.97
56582;BME280;42463;52.214;21.238;2024-03-29T09:13:06;99344.05;;;16.16;43.10
56582;BME280;42463;52.214;21.238;2024-03-29T09:15:39;99347.02;;;16.22;43.47
56582;BME280;42463;52.214;21.238;2024-03-29T09:18:11;99335.67;;;16.29;42.91
56582;BME280;42463;52.214;21.238;2024-03-29T09:20:59;99344.63;;;16.28;42.63
56582;BME280;42463;52.214;21.238;2024-03-29T09:23:32;99344.16;;;16.33;42.49
56582;BME280;42463;52.214;21.238;2024-03-29T09:26:07;99352.23;;;16.40;42.40
56582;BME280;42463;52.214;21.238;2024-03-29T09:28:40;99355.01;;;16.46;42.22
56582;BME280;42463;52.214;21.238;2024-03-29T09:31:12;99358.18;;;16.56;42.55
56582;BME280;42463;52.214;21.238;2024-03-29T09:33:45;99364.56;;;16.68;42.62
56582;BME280;42463;52.214;21.238;2024-03-29T09:36:24;99360.20;;;16.75;42.30
56582;BME280;42463;52.214;21.238;2024-03-29T09:38:57;99357.04;;;16.80;42.23
56582;BME280;42463;52.214;21.238;2024-03-29T09:41:32;99352.15;;;16.91;42.37
56582;BME280;42463;52.214;21.238;2024-03-29T09:44:10;99351.89;;;17.07;42.31
56582;BME280;42463;52.214;21.238;2024-03-29T09:46:43;99347.50;;;17.21;41.72
56582;BME280;42463;52.214;21.238;2024-03-29T09:49:16;99332.67;;;17.34;41.69
56582;BME280;42463;52.214;21.238;2024-03-29T09:51:48;99337.04;;;17.45;41.44
56582;BME280;42463;52.214;21.238;2024-03-29T09:54:22;99344.02;;;17.51;40.79
56582;BME280;42463;52.214;21.238;2024-03-29T09:56:55;99344.40;;;17.54;39.68
56582;BME280;42463;52.214;21.238;2024-03-29T09:59:29;99355.59;;;17.58;40.33
56582;BME280;42463;52.214;21.238;2024-03-29T10:02:01;99365.45;;;17.68;40.31
56582;BME280;42463;52.214;21.238;2024-03-29T10:04:36;99359.21;;;17.75;39.85
56582;BME280;42463;52.214;21.238;2024-03-29T10:07:09;99360.74;;;17.82;38.88
56582;BME280;42463;52.214;21.238;2024-03-29T10:09:44;99361.31;;;17.84;38.48
56582;BME280;42463;52.214;21.238;2024-03-29T10:12:16;99351.46;;;17.93;39.00
56582;BME280;42463;52.214;21.238;2024-03-29T10:14:50;99354.02;;;18.07;39.38
56582;BME280;42463;52.214;21.238;2024-03-29T10:17:26;99362.98;;;18.23;39.03
56582;BME280;42463;52.214;21.238;2024-03-29T10:20:03;99360.11;;;18.28;38.49
56582;BME280;42463;52.214;21.238;2024-03-29T10:22:43;99356.77;;;18.21;38.29
56582;BME280;42463;52.214;21.238;2024-03-29T10:25:17;99355.77;;;18.19;38.74
56582;BME280;42463;52.214;21.238;2024-03-29T10:27:49;99358.54;;;18.14;38.24
56582;BME280;42463;52.214;21.238;2024-03-29T10:30:24;99358.95;;;18.09;38.56
56582;BME280;42463;52.214;21.238;2024-03-29T10:32:58;99362.76;;;18.04;38.30
56582;BME280;42463;52.214;21.238;2024-03-29T10:35:31;99356.59;;;18.03;38.42
56582;BME280;42463;52.214;21.238;2024-03-29T10:38:05;99359.10;;;18.06;38.28
56582;BME280;42463;52.214;21.238;2024-03-29T10:40:40;99361.75;;;18.10;38.44
56582;BME280;42463;52.214;21.238;2024-03-29T10:43:13;99363.27;;;18.17;38.61
56582;BME280;42463;52.214;21.238;2024-03-29T10:45:45;99373.11;;;18.31;38.37
56582;BME280;42463;52.214;21.238;2024-03-29T10:48:18;99375.27;;;18.36;37.77
56582;BME280;42463;52.214;21.238;2024-03-29T10:50:52;99378.83;;;18.44;38.48
56582;BME280;42463;52.214;21.238;2024-03-29T10:53:28;99369.20;;;18.49;37.79
56582;BME280;42463;52.214;21.238;2024-03-29T10:56:01;99365.94;;;18.54;37.85
56582;BME280;42463;52.214;21.238;2024-03-29T10:58:41;99374.64;;;18.58;37.20
56582;BME280;42463;52.214;21.238;2024-03-29T11:01:18;99374.39;;;18.58;37.33
56582;BME280;42463;52.214;21.238;2024-03-29T11:03:58;99373.48;;;18.62;37.14
56582;BME280;42463;52.214;21.238;2024-03-29T11:06:35;99365.40;;;18.62;36.66
56582;BME280;42463;52.214;21.238;2024-03-29T11:09:14;99363.70;;;18.65;37.01
56582;BME280;42463;52.214;21.238;2024-03-29T11:11:50;99366.66;;;18.69;36.68
56582;BME280;42463;52.214;21.238;2024-03-29T11:14:31;99365.73;;;18.72;36.70
56582;BME280;42463;52.214;21.238;2024-03-29T11:17:06;99364.45;;;18.81;36.68
56582;BME280;42463;52.214;21.238;2024-03-29T11:19:38;99369.16;;;18.89;36.40
56582;BME280;42463;52.214;21.238;2024-03-29T11:22:12;99381.55;;;18.95;35.99
56582;BME280;42463;52.214;21.238;2024-03-29T11:24:44;99380.80;;;18.96;35.29
56582;BME280;42463;52.214;21.238;2024-03-29T11:27:17;99381.04;;;18.96;35.97
56582;BME280;42463;52.214;21.238;2024-03-29T11:29:55;99372.52;;;19.05;36.38
56582;BME280;42463;52.214;21.238;2024-03-29T11:32:39;99358.39;;;19.19;35.48
56582;BME280;42463;52.214;21.238;2024-03-29T11:35:18;99349.72;;;19.33;36.01
56582;BME280;42463;52.214;21.238;2024-03-29T11:38:00;99355.17;;;19.47;35.62
56582;BME280;42463;52.214;21.238;2024-03-29T11:40:33;99356.50;;;19.60;35.08
56582;BME280;42463;52.214;21.238;2024-03-29T11:43:06;99360.08;;;19.62;33.96
56582;BME280;42463;52.214;21.238;2024-03-29T11:45:39;99356.10;;;19.64;34.35
56582;BME280;42463;52.214;21.238;2024-03-29T11:48:14;99344.09;;;19.64;33.98
56582;BME280;42463;52.214;21.238;2024-03-29T11:50:48;99342.46;;;19.65;33.96
56582;BME280;42463;52.214;21.238;2024-03-29T11:53:20;99350.54;;;19.66;33.74
56582;BME280;42463;52.214;21.238;2024-03-29T11:55:53;99359.63;;;19.73;33.82
56582;BME280;42463;52.214;21.238;2024-03-29T11:58:27;99358.56;;;19.78;33.45
56582;BME280;42463;52.214;21.238;2024-03-29T12:01:01;99370.02;;;19.84;33.72
56582;BME280;42463;52.214;21.238;2024-03-29T12:03:37;99375.08;;;19.91;33.48
56582;BME280;42463;52.214;21.238;2024-03-29T12:06:14;99371.38;;;20.03;33.49
56582;BME280;42463;52.214;21.238;2024-03-29T12:08:49;99368.27;;;20.14;33.06
56582;BME280;42463;52.214;21.238;2024-03-29T12:11:27;99370.84;;;20.15;31.75
56582;BME280;42463;52.214;21.238;2024-03-29T12:13:59;99364.02;;;20.11;32.16
56582;BME280;42463;52.214;21.238;2024-03-29T12:16:32;99370.91;;;20.15;31.92
56582;BME280;42463;52.214;21.238;2024-03-29T12:19:24;99368.94;;;20.20;31.92
56582;BME280;42463;52.214;21.238;2024-03-29T12:21:58;99374.20;;;20.27;31.88
56582;BME280;42463;52.214;21.238;2024-03-29T12:24:30;99377.34;;;20.29;31.34
56582;BME280;42463;52.214;21.238;2024-03-29T12:27:02;99375.64;;;20.27;31.38
56582;BME280;42463;52.214;21.238;2024-03-29T12:29:35;99378.52;;;20.27;31.52
56582;BME280;42463;52.214;21.238;2024-03-29T12:32:09;99378.40;;;20.25;31.38
56582;BME280;42463;52.214;21.238;2024-03-29T12:34:41;99387.27;;;20.27;31.62
56582;BME280;42463;52.214;21.238;2024-03-29T12:37:15;99379.73;;;20.30;31.44
56582;BME280;42463;52.214;21.238;2024-03-29T12:39:49;99382.34;;;20.30;31.47
56582;BME280;42463;52.214;21.238;2024-03-29T12:42:24;99381.65;;;20.33;32.02
56582;BME280;42463;52.214;21.238;2024-03-29T12:44:56;99387.20;;;20.31;31.52
56582;BME280;42463;52.214;21.238;2024-03-29T12:47:29;99385.21;;;20.34;31.61
56582;BME280;42463;52.214;21.238;2024-03-29T12:50:08;99383.89;;;20.36;31.37
56582;BME280;42463;52.214;21.238;2024-03-29T12:52:41;99388.02;;;20.44;31.72
56582;BME280;42463;52.214;21.238;2024-03-29T12:55:13;99385.63;;;20.53;32.25
56582;BME280;42463;52.214;21.238;2024-03-29T12:57:48;99384.16;;;20.64;31.47
56582;BME280;42463;52.214;21.238;2024-03-29T13:00:23;99387.90;;;20.70;31.61
56582;BME280;42463;52.214;21.238;2024-03-29T13:02:56;99387.42;;;20.70;31.29
56582;BME280;42463;52.214;21.238;2024-03-29T13:05:31;99392.65;;;20.69;31.64
56582;BME280;42463;52.214;21.238;2024-03-29T13:08:07;99390.15;;;20.69;31.23
56582;BME280;42463;52.214;21.238;2024-03-29T13:10:42;99387.89;;;20.76;31.26
56582;BME280;42463;52.214;21.238;2024-03-29T13:13:15;99381.61;;;20.85;31.29
56582;BME280;42463;52.214;21.238;2024-03-29T13:15:48;99384.59;;;20.96;30.81
56582;BME280;42463;52.214;21.238;2024-03-29T13:18:22;99383.64;;;20.95;30.96
56582;BME280;42463;52.214;21.238;2024-03-29T13:20:56;99389.60;;;20.91;30.40
56582;BME280;42463;52.214;21.238;2024-03-29T13:23:33;99388.20;;;20.87;30.52
56582;BME280;42463;52.214;21.238;2024-03-29T13:26:07;99386.20;;;20.86;30.20
56582;BME280;42463;52.214;21.238;2024-03-29T13:28:42;99388.48;;;20.89;30.79